Time;durP1;ratioP1;P1;durP2;ratioP2;P2;SDS_P1;SDS_P2;PMS_P1;PMS_P2;Temp;Humidity;BMP_temperature;BMP_pressure;BME280_temperature;BME280_humidity;BME280_pressure;Samples;Min_cycle;Max_cycle;Signal;HPM_P1;HPM_P2
2021/09/09 00:01:06;;;;;;;14.98;13.75;;;16.10;77.30;;;;;;4933999;29;20054;-72
2021/09/09 00:03:40;;;;;;;14.55;13.35;;;16.10;78.30;;;;;;4948694;29;20051;-72
2021/09/09 00:06:13;;;;;;;15.27;13.93;;;16.10;78.30;;;;;;4935625;29;20433;-71
2021/09/09 00:08:45;;;;;;;15.73;14.25;;;16.00;78.20;;;;;;4935124;29;20653;-72
2021/09/09 00:11:17;;;;;;;13.88;12.65;;;16.00;77.50;;;;;;4935728;29;20140;-72
2021/09/09 00:13:50;;;;;;;14.90;13.50;;;16.00;77.80;;;;;;4934733;29;20063;-72
2021/09/09 00:16:23;;;;;;;14.55;13.35;;;16.00;76.40;;;;;;4933459;29;20166;-71
2021/09/09 00:18:56;;;;;;;14.43;13.13;;;16.00;76.70;;;;;;4920867;29;20049;-72
2021/09/09 00:21:28;;;;;;;14.75;13.45;;;15.90;76.80;;;;;;4935225;29;20079;-71
2021/09/09 00:24:01;;;;;;;14.27;13.18;;;15.90;77.00;;;;;;4937503;29;20443;-71
2021/09/09 00:26:34;;;;;;;14.40;13.13;;;15.90;76.90;;;;;;4936029;29;20047;-71
2021/09/09 00:29:06;;;;;;;14.13;12.98;;;15.90;76.80;;;;;;4933366;29;20052;-72
2021/09/09 00:31:40;;;;;;;14.15;12.95;;;15.90;76.90;;;;;;4926117;29;20145;-71
2021/09/09 00:34:13;;;;;;;13.75;12.60;;;15.80;76.40;;;;;;4934126;29;20577;-72
2021/09/09 00:36:47;;;;;;;14.45;13.25;;;15.80;76.10;;;;;;4935242;29;20541;-71
2021/09/09 00:39:19;;;;;;;15.38;14.07;;;15.80;76.80;;;;;;4919070;29;20536;-71
2021/09/09 00:41:54;;;;;;;14.70;13.50;;;15.80;78.30;;;;;;4932558;29;20092;-71
2021/09/09 00:44:28;;;;;;;14.75;13.38;;;15.80;78.30;;;;;;4932024;29;20536;-73
2021/09/09 00:47:11;;;;;;;14.85;13.52;;;15.80;78.40;;;;;;4935631;29;20473;-72
2021/09/09 00:49:44;;;;;;;14.70;13.50;;;15.80;77.20;;;;;;4934477;29;20589;-72
2021/09/09 00:52:16;;;;;;;14.40;13.20;;;15.80;76.60;;;;;;4941986;29;20538;-73
2021/09/09 00:54:48;;;;;;;14.15;12.90;;;15.80;76.30;;;;;;4937089;29;20054;-72
2021/09/09 00:57:21;;;;;;;14.73;13.23;;;15.80;76.30;;;;;;4934856;29;20136;-72
2021/09/09 00:59:53;;;;;;;14.98;13.70;;;15.80;76.40;;;;;;4932636;29;20051;-72
2021/09/09 01:02:25;;;;;;;14.35;13.15;;;15.80;76.50;;;;;;4934340;29;20052;-71
2021/09/09 01:04:57;;;;;;;14.45;13.25;;;15.80;76.70;;;;;;4935163;29;20043;-70
2021/09/09 01:07:29;;;;;;;14.77;13.48;;;15.70;76.50;;;;;;4931985;29;20166;-70
2021/09/09 01:10:03;;;;;;;14.77;13.35;;;15.70;77.30;;;;;;4936437;29;20043;-71
2021/09/09 01:12:36;;;;;;;15.48;14.07;;;15.70;77.60;;;;;;4936282;29;20491;-71
2021/09/09 01:15:08;;;;;;;15.98;14.68;;;15.80;78.70;;;;;;4925069;29;20121;-71
2021/09/09 01:17:40;;;;;;;14.35;13.15;;;15.80;78.20;;;;;;4933187;29;20067;-71
2021/09/09 01:20:13;;;;;;;14.25;13.10;;;15.70;76.40;;;;;;4918161;29;20051;-70
2021/09/09 01:22:45;;;;;;;15.13;13.93;;;15.60;76.60;;;;;;4934214;29;20051;-71
2021/09/09 01:25:17;;;;;;;15.07;13.80;;;15.60;76.40;;;;;;4917254;29;20054;-71
2021/09/09 01:27:49;;;;;;;16.00;14.57;;;15.60;76.40;;;;;;4905326;29;20070;-73
2021/09/09 01:30:21;;;;;;;15.60;14.30;;;15.60;78.50;;;;;;4932970;29;20079;-71
2021/09/09 01:32:53;;;;;;;15.82;14.50;;;15.60;78.60;;;;;;4932752;29;20443;-72
2021/09/09 01:35:25;;;;;;;14.93;13.73;;;15.60;77.40;;;;;;4931980;29;20067;-72
2021/09/09 01:37:57;;;;;;;15.15;13.75;;;15.60;77.70;;;;;;4919715;29;20124;-71
2021/09/09 01:40:31;;;;;;;15.98;14.40;;;15.60;77.30;;;;;;4933573;29;20506;-71
2021/09/09 01:43:03;;;;;;;16.15;14.65;;;15.60;78.40;;;;;;4939408;29;20060;-71
2021/09/09 01:45:35;;;;;;;15.43;14.13;;;15.50;78.10;;;;;;4925474;29;20518;-71
2021/09/09 01:48:07;;;;;;;16.45;14.10;;;15.60;78.00;;;;;;4933520;29;20052;-71
2021/09/09 01:50:39;;;;;;;14.63;13.27;;;15.50;77.30;;;;;;4934029;29;20051;-71
2021/09/09 01:53:11;;;;;;;15.02;13.73;;;15.50;76.80;;;;;;4933729;29;20072;-71
2021/09/09 01:55:43;;;;;;;14.55;13.25;;;15.60;77.20;;;;;;4931874;29;20139;-72
2021/09/09 01:58:15;;;;;;;14.50;13.30;;;15.60;76.80;;;;;;4932663;29;20134;-72
2021/09/09 02:00:47;;;;;;;14.48;13.23;;;15.60;76.80;;;;;;4933514;29;20047;-72
2021/09/09 02:03:21;;;;;;;14.25;13.15;;;15.60;77.00;;;;;;4932707;29;20056;-72
2021/09/09 02:05:54;;;;;;;14.23;13.02;;;15.60;77.20;;;;;;4917956;30;20996;-72
2021/09/09 02:08:26;;;;;;;14.32;13.07;;;15.60;77.00;;;;;;4934991;29;20125;-73
2021/09/09 02:10:58;;;;;;;15.35;13.95;;;15.60;77.20;;;;;;4910537;30;20056;-73
2021/09/09 02:13:29;;;;;;;15.60;14.20;;;15.60;78.80;;;;;;4933803;29;20051;-72
2021/09/09 02:16:02;;;;;;;15.45;14.15;;;15.50;79.80;;;;;;4933697;29;20518;-72
2021/09/09 02:18:34;;;;;;;16.48;15.07;;;15.40;80.40;;;;;;4939738;29;20075;-73
2021/09/09 02:21:06;;;;;;;15.82;14.25;;;15.40;80.50;;;;;;4931925;29;20102;-72
2021/09/09 02:23:39;;;;;;;15.27;13.77;;;15.40;80.30;;;;;;4935348;29;20048;-73
2021/09/09 02:26:11;;;;;;;14.50;13.30;;;15.30;79.40;;;;;;4931356;29;20097;-72
2021/09/09 02:28:45;;;;;;;14.40;13.05;;;15.40;78.70;;;;;;4924821;30;20062;-71
2021/09/09 02:31:17;;;;;;;14.73;13.43;;;15.40;78.70;;;;;;4929355;29;20067;-72
2021/09/09 02:33:49;;;;;;;14.15;13.05;;;15.40;78.70;;;;;;4924549;30;20069;-71
2021/09/09 02:36:21;;;;;;;14.85;13.55;;;15.40;79.50;;;;;;4919338;29;20047;-71
2021/09/09 02:38:52;;;;;;;13.88;12.57;;;15.40;79.30;;;;;;4933498;29;20101;-72
2021/09/09 02:41:25;;;;;;;14.13;12.75;;;15.40;79.00;;;;;;4918402;29;20588;-72
2021/09/09 02:43:57;;;;;;;14.23;13.02;;;15.40;78.70;;;;;;4934493;29;20063;-72
2021/09/09 02:46:29;;;;;;;14.13;12.98;;;15.40;78.90;;;;;;4915623;30;20104;-72
2021/09/09 02:49:01;;;;;;;14.20;12.90;;;15.30;78.70;;;;;;4930257;29;20114;-71
2021/09/09 02:51:33;;;;;;;13.88;12.77;;;15.30;78.00;;;;;;4924582;30;20493;-72
2021/09/09 02:54:05;;;;;;;14.38;13.18;;;15.30;77.80;;;;;;4937412;29;20105;-71
2021/09/09 02:56:37;;;;;;;14.40;13.20;;;15.30;78.00;;;;;;4933735;29;20124;-72
2021/09/09 02:59:09;;;;;;;14.07;12.75;;;15.20;77.70;;;;;;4937035;29;20075;-71
2021/09/09 03:01:41;;;;;;;15.27;13.75;;;15.20;77.90;;;;;;4937826;29;20697;-71
2021/09/09 03:04:13;;;;;;;14.43;13.13;;;15.20;78.80;;;;;;4938971;29;20128;-72
2021/09/09 03:06:46;;;;;;;14.25;13.05;;;15.20;78.80;;;;;;4924310;30;20052;-72
2021/09/09 03:09:18;;;;;;;14.02;12.73;;;15.20;79.00;;;;;;4936837;29;20055;-73
2021/09/09 03:11:50;;;;;;;13.57;12.38;;;15.20;77.60;;;;;;4937247;29;20051;-73
2021/09/09 03:14:22;;;;;;;13.57;12.40;;;15.20;77.60;;;;;;4933622;29;20051;-73
2021/09/09 03:16:54;;;;;;;13.13;12.02;;;15.10;77.60;;;;;;4935372;29;20043;-72
2021/09/09 03:19:26;;;;;;;12.98;11.88;;;15.10;77.40;;;;;;4934300;29;20119;-71
2021/09/09 03:21:58;;;;;;;13.25;12.05;;;15.10;77.20;;;;;;4937086;29;20513;-72
2021/09/09 03:24:30;;;;;;;12.98;11.88;;;15.10;77.10;;;;;;4934751;29;20156;-72
2021/09/09 03:27:03;;;;;;;13.05;11.95;;;15.10;77.40;;;;;;4937219;29;20052;-72
2021/09/09 03:29:35;;;;;;;13.55;12.45;;;15.10;77.00;;;;;;4935354;29;20238;-72
2021/09/09 03:32:07;;;;;;;13.38;12.20;;;15.10;77.00;;;;;;4936293;29;20152;-72
2021/09/09 03:34:39;;;;;;;13.05;11.98;;;15.10;77.00;;;;;;4949544;29;20108;-72
2021/09/09 03:37:11;;;;;;;13.68;12.48;;;15.00;77.00;;;;;;4933643;29;20062;-71
2021/09/09 03:39:43;;;;;;;13.45;12.35;;;15.00;78.20;;;;;;4936006;29;20128;-71
2021/09/09 03:42:15;;;;;;;13.85;12.65;;;15.00;77.90;;;;;;4938442;29;20048;-71
2021/09/09 03:44:48;;;;;;;13.27;12.18;;;15.10;78.30;;;;;;4935202;29;20066;-72
2021/09/09 03:47:20;;;;;;;14.05;12.75;;;15.00;78.30;;;;;;4935711;29;20055;-72
2021/09/09 03:49:52;;;;;;;12.95;11.85;;;15.00;78.20;;;;;;4928409;30;20055;-71
2021/09/09 03:52:24;;;;;;;12.80;11.75;;;15.00;78.20;;;;;;4934803;29;20052;-72
2021/09/09 03:54:55;;;;;;;13.32;12.13;;;15.10;78.20;;;;;;4936510;29;20124;-72
2021/09/09 03:57:27;;;;;;;12.88;11.77;;;15.10;78.50;;;;;;4904797;29;20059;-70
2021/09/09 03:59:59;;;;;;;13.00;11.73;;;15.10;77.80;;;;;;4942379;29;20150;-71
2021/09/09 04:02:31;;;;;;;13.15;11.90;;;15.10;77.80;;;;;;4937079;29;20150;-71
2021/09/09 04:05:04;;;;;;;12.98;11.90;;;15.10;77.90;;;;;;4935846;29;20047;-71
2021/09/09 04:07:36;;;;;;;13.70;12.43;;;15.10;78.10;;;;;;4928986;30;20059;-71
2021/09/09 04:10:09;;;;;;;13.35;12.25;;;15.00;77.30;;;;;;4934594;29;20695;-70
2021/09/09 04:12:42;;;;;;;13.27;12.18;;;15.00;77.30;;;;;;4943106;29;20047;-71
2021/09/09 04:15:14;;;;;;;13.32;12.23;;;14.90;77.30;;;;;;4936005;29;20058;-71
2021/09/09 04:17:46;;;;;;;13.18;12.00;;;14.90;77.40;;;;;;4933879;29;20093;-72
2021/09/09 04:20:18;;;;;;;13.63;12.43;;;15.00;77.70;;;;;;4934700;29;20174;-72
2021/09/09 04:22:50;;;;;;;12.95;11.85;;;15.00;77.80;;;;;;4922851;30;20043;-71
2021/09/09 04:25:22;;;;;;;12.90;11.80;;;14.90;77.60;;;;;;4938038;29;20044;-71
2021/09/09 04:27:54;;;;;;;12.52;11.40;;;14.90;77.40;;;;;;4934259;29;20154;-72
2021/09/09 04:30:26;;;;;;;13.00;11.90;;;14.90;77.70;;;;;;4936084;29;20134;-71
2021/09/09 04:32:58;;;;;;;12.82;11.73;;;14.80;79.10;;;;;;4937269;29;20537;-71
2021/09/09 04:35:30;;;;;;;12.98;11.77;;;14.80;78.70;;;;;;4934829;29;20054;-71
2021/09/09 04:38:02;;;;;;;12.70;11.60;;;14.80;78.20;;;;;;4923281;29;20655;-70
2021/09/09 04:40:34;;;;;;;12.35;11.35;;;14.80;79.10;;;;;;4934682;29;20089;-72
2021/09/09 04:43:06;;;;;;;13.35;12.13;;;14.80;78.70;;;;;;4941458;29;20518;-72
2021/09/09 04:45:38;;;;;;;13.82;12.35;;;14.80;78.70;;;;;;4921706;30;20604;-72
2021/09/09 04:48:10;;;;;;;12.50;11.23;;;14.80;78.90;;;;;;4935896;29;20047;-73
2021/09/09 04:50:43;;;;;;;12.75;11.65;;;14.80;79.10;;;;;;4935193;29;20071;-73
2021/09/09 04:53:15;;;;;;;12.65;11.32;;;14.80;79.10;;;;;;4938519;29;20087;-72
2021/09/09 04:55:46;;;;;;;12.80;11.60;;;14.80;78.60;;;;;;4935163;29;20051;-73
2021/09/09 04:58:18;;;;;;;12.55;11.55;;;14.90;79.00;;;;;;4934190;29;20158;-72
2021/09/09 05:00:50;;;;;;;12.40;11.38;;;14.90;79.30;;;;;;4906639;30;20047;-73
2021/09/09 05:03:22;;;;;;;13.43;12.15;;;14.90;79.10;;;;;;4934116;29;20060;-72
2021/09/09 05:05:55;;;;;;;13.10;11.90;;;14.90;79.10;;;;;;4934027;29;20055;-73
2021/09/09 05:08:27;;;;;;;12.82;11.52;;;15.00;78.90;;;;;;4936273;29;20093;-72
2021/09/09 05:10:59;;;;;;;13.55;12.35;;;15.00;79.30;;;;;;4935262;29;20054;-72
2021/09/09 05:13:30;;;;;;;12.20;11.13;;;15.00;79.10;;;;;;4921065;30;20813;-72
2021/09/09 05:16:02;;;;;;;13.25;12.05;;;15.00;79.10;;;;;;4935167;29;20512;-72
2021/09/09 05:18:35;;;;;;;12.70;11.63;;;15.10;79.80;;;;;;4926125;30;20059;-72
2021/09/09 05:21:06;;;;;;;13.40;12.30;;;15.10;79.20;;;;;;4921024;30;20542;-73
2021/09/09 05:23:38;;;;;;;14.43;12.15;;;15.20;79.10;;;;;;4933158;29;20157;-73
2021/09/09 05:26:10;;;;;;;13.45;12.18;;;15.20;78.90;;;;;;4947119;29;20422;-72
2021/09/09 05:28:42;;;;;;;13.05;11.95;;;15.30;79.20;;;;;;4923198;30;20047;-73
2021/09/09 05:31:14;;;;;;;14.00;12.70;;;15.40;77.90;;;;;;4920066;29;20078;-71
2021/09/09 05:33:46;;;;;;;13.27;12.27;;;15.50;78.00;;;;;;4917782;30;20085;-72
2021/09/09 05:36:18;;;;;;;12.93;11.90;;;15.60;78.90;;;;;;4929983;29;20150;-73
2021/09/09 05:38:50;;;;;;;13.45;12.32;;;15.70;79.20;;;;;;4933133;29;20170;-72
2021/09/09 05:41:22;;;;;;;12.82;11.63;;;15.80;79.00;;;;;;4925470;29;20047;-73
2021/09/09 05:43:54;;;;;;;13.23;12.10;;;15.90;79.10;;;;;;4933084;29;20097;-73
2021/09/09 05:46:26;;;;;;;13.30;12.02;;;16.00;79.10;;;;;;4933732;29;20043;-71
2021/09/09 05:49:01;;;;;;;13.93;12.75;;;16.10;79.50;;;;;;4931018;29;20075;-73
2021/09/09 05:51:33;;;;;;;13.40;12.20;;;16.30;78.20;;;;;;4928743;29;20051;-72
2021/09/09 05:54:05;;;;;;;15.90;14.27;;;16.40;77.80;;;;;;4930154;29;20525;-73
2021/09/09 05:56:37;;;;;;;14.73;13.43;;;16.50;78.70;;;;;;4931353;29;20070;-73
2021/09/09 05:59:10;;;;;;;15.15;13.85;;;16.60;78.50;;;;;;4931272;29;20079;-74
2021/09/09 06:01:44;;;;;;;14.40;13.20;;;16.80;78.20;;;;;;4932473;29;20097;-74
2021/09/09 06:04:18;;;;;;;14.52;13.23;;;16.90;78.30;;;;;;4920605;29;20048;-73
2021/09/09 06:06:49;;;;;;;15.25;13.95;;;17.10;76.60;;;;;;4933436;29;20059;-74
2021/09/09 06:09:21;;;;;;;14.93;13.43;;;17.20;76.00;;;;;;4918986;29;20628;-73
2021/09/09 06:11:53;;;;;;;15.18;13.88;;;17.30;76.20;;;;;;4924641;30;20109;-73
2021/09/09 06:14:25;;;;;;;15.63;14.25;;;17.40;75.30;;;;;;4932314;29;20050;-73
2021/09/09 06:16:57;;;;;;;15.43;14.02;;;17.60;75.50;;;;;;4932410;29;20158;-74
2021/09/09 06:19:30;;;;;;;15.35;14.07;;;17.60;74.90;;;;;;4918457;30;20146;-74
2021/09/09 06:22:02;;;;;;;15.63;14.38;;;17.70;75.60;;;;;;4915555;30;20068;-73
2021/09/09 06:24:33;;;;;;;15.65;14.10;;;17.70;75.70;;;;;;4928728;29;20047;-73
2021/09/09 06:27:05;;;;;;;16.38;14.85;;;17.80;76.10;;;;;;4930262;29;20047;-73
2021/09/09 06:29:37;;;;;;;15.35;14.15;;;17.80;76.00;;;;;;4930368;29;20939;-74
2021/09/09 06:32:09;;;;;;;15.77;14.23;;;18.00;76.80;;;;;;4923834;30;20075;-74
2021/09/09 06:34:41;;;;;;;15.10;13.90;;;18.10;76.90;;;;;;4934689;29;20057;-73
2021/09/09 06:37:13;;;;;;;15.18;13.98;;;18.10;73.20;;;;;;4935697;29;20055;-73
2021/09/09 06:39:45;;;;;;;14.52;13.32;;;18.20;73.60;;;;;;4933052;29;20138;-74
2021/09/09 06:42:17;;;;;;;15.40;13.85;;;18.30;75.20;;;;;;4934988;29;20158;-74
2021/09/09 06:44:48;;;;;;;14.68;13.45;;;18.50;73.70;;;;;;4930601;29;20138;-73
2021/09/09 06:47:20;;;;;;;15.75;14.43;;;18.60;71.20;;;;;;4933387;29;20075;-74
2021/09/09 06:49:52;;;;;;;15.63;14.40;;;18.60;71.30;;;;;;4932225;29;20434;-74
2021/09/09 06:52:24;;;;;;;15.50;14.30;;;18.60;72.80;;;;;;4930722;29;20190;-73
2021/09/09 06:54:56;;;;;;;15.45;14.10;;;18.60;71.20;;;;;;4932570;29;20146;-73
2021/09/09 06:57:28;;;;;;;15.75;14.52;;;18.80;70.50;;;;;;4926693;29;20112;-73
2021/09/09 07:00:00;;;;;;;15.23;13.93;;;18.80;73.00;;;;;;4933922;29;20059;-73
2021/09/09 07:02:32;;;;;;;16.15;14.85;;;18.80;72.10;;;;;;4916477;30;20136;-74
2021/09/09 07:05:05;;;;;;;15.73;14.30;;;18.80;71.40;;;;;;4932012;29;20040;-73
2021/09/09 07:07:39;;;;;;;16.70;15.07;;;18.90;71.40;;;;;;4916253;30;20139;-73
2021/09/09 07:10:11;;;;;;;15.70;14.30;;;18.90;70.90;;;;;;4931615;29;20108;-74
2021/09/09 07:12:43;;;;;;;16.40;15.10;;;18.90;72.90;;;;;;4931600;29;20670;-74
2021/09/09 07:15:15;;;;;;;16.25;14.95;;;19.10;70.50;;;;;;4931843;29;20058;-73
2021/09/09 07:17:47;;;;;;;15.35;14.05;;;19.30;72.00;;;;;;4929848;29;20044;-74
2021/09/09 07:20:19;;;;;;;15.43;14.15;;;19.40;72.90;;;;;;4928968;29;20047;-74
2021/09/09 07:22:51;;;;;;;15.57;14.27;;;19.50;71.40;;;;;;4934637;29;20384;-74
2021/09/09 07:25:23;;;;;;;16.10;14.70;;;19.60;71.40;;;;;;4933170;29;20051;-73
2021/09/09 07:27:55;;;;;;;15.35;14.07;;;19.60;70.50;;;;;;4931702;29;20777;-74
2021/09/09 07:30:27;;;;;;;15.75;14.32;;;19.70;71.80;;;;;;4932021;29;20050;-74
2021/09/09 07:32:59;;;;;;;15.73;14.35;;;19.70;71.60;;;;;;4932480;29;20086;-73
2021/09/09 07:35:31;;;;;;;16.23;14.82;;;19.60;73.40;;;;;;4932201;29;20123;-74
2021/09/09 07:38:04;;;;;;;15.23;13.93;;;19.40;73.70;;;;;;4933041;29;20051;-73
2021/09/09 07:40:35;;;;;;;16.65;15.05;;;19.30;75.00;;;;;;4941491;29;20047;-74
2021/09/09 07:43:09;;;;;;;16.02;14.73;;;19.20;75.90;;;;;;4933335;29;20523;-73
2021/09/09 07:45:41;;;;;;;16.05;14.55;;;19.10;76.00;;;;;;4936057;29;20043;-73
2021/09/09 07:48:13;;;;;;;15.73;14.32;;;19.00;76.90;;;;;;4934587;29;20517;-74
2021/09/09 07:50:45;;;;;;;15.35;14.05;;;19.00;77.10;;;;;;4935311;29;20134;-74
2021/09/09 07:53:16;;;;;;;16.15;14.55;;;19.10;77.70;;;;;;4937301;29;20044;-74
2021/09/09 07:55:48;;;;;;;16.05;14.65;;;19.10;77.40;;;;;;4935463;29;20119;-74
2021/09/09 07:58:20;;;;;;;15.75;14.27;;;19.20;77.60;;;;;;4937209;29;20126;-74
2021/09/09 08:00:52;;;;;;;16.08;14.48;;;19.30;78.90;;;;;;4935423;29;20051;-74
2021/09/09 08:03:24;;;;;;;15.23;13.93;;;19.30;78.20;;;;;;4933774;29;20547;-74
2021/09/09 08:05:57;;;;;;;15.65;14.35;;;19.30;78.70;;;;;;4935261;29;20051;-74
2021/09/09 08:08:28;;;;;;;14.82;13.60;;;19.30;79.00;;;;;;4937657;29;20050;-74
2021/09/09 08:11:00;;;;;;;15.65;14.40;;;19.30;79.20;;;;;;4936383;29;20299;-74
2021/09/09 08:13:34;;;;;;;14.85;13.68;;;19.20;79.00;;;;;;4935282;29;20094;-74
2021/09/09 08:16:06;;;;;;;15.00;13.77;;;19.20;78.70;;;;;;4935891;29;20056;-73
2021/09/09 08:18:38;;;;;;;14.63;13.43;;;19.20;78.70;;;;;;4936463;29;20127;-73
2021/09/09 08:21:10;;;;;;;14.57;13.38;;;19.20;77.80;;;;;;4942002;29;20066;-73
2021/09/09 08:23:42;;;;;;;15.70;14.20;;;19.20;78.50;;;;;;4935000;29;20195;-73
2021/09/09 08:26:14;;;;;;;15.25;14.05;;;19.30;78.40;;;;;;4936059;29;20124;-73
2021/09/09 08:28:46;;;;;;;15.75;14.45;;;19.30;78.80;;;;;;4937566;29;20084;-74
2021/09/09 08:31:18;;;;;;;15.57;14.27;;;19.40;78.90;;;;;;4935062;29;20578;-74
2021/09/09 08:33:50;;;;;;;15.88;14.48;;;19.50;79.00;;;;;;4934921;29;20061;-73
2021/09/09 08:36:22;;;;;;;15.15;13.95;;;19.60;79.50;;;;;;4933232;29;20673;-73
2021/09/09 08:38:54;;;;;;;14.80;13.70;;;19.60;79.40;;;;;;4935005;29;20590;-72
2021/09/09 08:41:26;;;;;;;15.07;13.77;;;19.70;79.10;;;;;;4937301;29;20067;-74
2021/09/09 08:43:58;;;;;;;15.43;14.23;;;19.50;78.30;;;;;;4933321;29;20138;-73
2021/09/09 08:46:30;;;;;;;15.52;14.32;;;19.50;78.90;;;;;;4932040;29;20189;-73
2021/09/09 08:49:02;;;;;;;16.08;14.77;;;19.40;78.50;;;;;;4935771;29;20498;-74
2021/09/09 08:51:35;;;;;;;16.02;14.55;;;19.50;78.20;;;;;;4935253;29;20048;-73
2021/09/09 08:54:07;;;;;;;15.10;14.00;;;19.40;77.10;;;;;;4918965;29;20087;-72
2021/09/09 08:56:39;;;;;;;15.25;14.05;;;19.40;77.90;;;;;;4935300;29;20256;-73
2021/09/09 08:59:11;;;;;;;14.98;13.82;;;19.40;78.00;;;;;;4933646;29;20060;-74
2021/09/09 09:02:02;;;;;;;14.90;13.70;;;19.30;78.00;;;;;;4936809;29;20142;-73
2021/09/09 09:04:37;;;;;;;14.40;13.30;;;19.30;77.10;;;;;;4926800;29;20154;-73
2021/09/09 09:07:09;;;;;;;15.48;14.18;;;19.20;77.20;;;;;;4933751;29;20170;-72
2021/09/09 09:09:42;;;;;;;14.30;13.10;;;19.10;76.70;;;;;;4935233;29;20801;-72
2021/09/09 09:12:14;;;;;;;15.18;13.90;;;19.10;75.40;;;;;;4934450;29;20116;-73
2021/09/09 09:14:46;;;;;;;15.27;13.85;;;19.00;77.40;;;;;;4935632;29;20129;-71
2021/09/09 09:17:18;;;;;;;14.85;13.65;;;19.00;79.70;;;;;;4935899;29;20407;-71
2021/09/09 09:19:50;;;;;;;15.77;14.52;;;19.00;79.80;;;;;;4935028;29;20048;-73
2021/09/09 09:22:31;;;;;;;16.08;14.55;;;19.00;79.30;;;;;;4935302;29;20043;-72
2021/09/09 09:25:03;;;;;;;14.75;13.65;;;19.10;79.70;;;;;;4931980;29;20541;-72
2021/09/09 09:27:47;;;;;;;14.85;13.57;;;19.10;79.00;;;;;;4920940;29;20047;-73
2021/09/09 09:30:19;;;;;;;14.85;13.65;;;19.10;78.80;;;;;;4934514;29;20370;-73
2021/09/09 09:32:52;;;;;;;14.85;13.65;;;19.20;79.70;;;;;;4934298;29;20134;-73
2021/09/09 09:35:26;;;;;;;14.82;13.63;;;19.10;78.20;;;;;;4932753;29;20135;-73
2021/09/09 09:38:00;;;;;;;14.68;13.57;;;19.20;75.90;;;;;;4925342;29;20166;-73
2021/09/09 09:40:36;;;;;;;14.93;13.82;;;19.10;75.80;;;;;;4940370;29;20067;-73
2021/09/09 09:43:12;;;;;;;13.95;12.85;;;19.20;76.60;;;;;;4934007;29;20056;-72
2021/09/09 09:45:52;;;;;;;14.55;13.35;;;19.20;75.20;;;;;;4934453;29;20057;-73
2021/09/09 09:48:30;;;;;;;14.98;13.77;;;19.20;76.80;;;;;;4936016;29;20063;-74
2021/09/09 09:51:03;;;;;;;15.32;13.95;;;19.30;76.80;;;;;;4933011;29;20945;-73
2021/09/09 09:53:35;;;;;;;15.25;13.95;;;19.30;76.50;;;;;;4934594;29;20068;-74
2021/09/09 09:56:06;;;;;;;15.48;14.18;;;19.30;76.70;;;;;;4935484;29;20911;-73
2021/09/09 09:58:38;;;;;;;15.88;14.57;;;19.40;75.40;;;;;;4931002;29;20095;-73
2021/09/09 10:01:10;;;;;;;15.48;14.18;;;19.40;74.70;;;;;;4934932;29;20075;-72
2021/09/09 10:03:43;;;;;;;15.43;14.23;;;19.40;73.90;;;;;;4931272;29;20403;-74
2021/09/09 10:06:16;;;;;;;15.30;14.05;;;19.50;74.60;;;;;;4932641;29;20079;-74
2021/09/09 10:08:48;;;;;;;16.02;14.73;;;19.50;74.30;;;;;;4930154;29;20721;-73
2021/09/09 10:11:20;;;;;;;15.57;14.38;;;19.50;72.80;;;;;;4932582;29;20180;-73
2021/09/09 10:13:53;;;;;;;16.17;14.88;;;19.50;73.70;;;;;;4929942;29;20043;-73
2021/09/09 10:16:32;;;;;;;16.60;15.20;;;19.60;74.00;;;;;;4931003;29;20134;-74
2021/09/09 10:19:04;;;;;;;16.60;15.05;;;19.60;72.40;;;;;;4935452;29;20077;-74
2021/09/09 10:21:37;;;;;;;16.80;15.40;;;19.80;75.30;;;;;;4917180;29;20047;-73
2021/09/09 10:24:10;;;;;;;16.92;15.63;;;19.90;74.60;;;;;;4934058;29;20105;-74
2021/09/09 10:26:43;;;;;;;16.50;15.20;;;20.00;74.70;;;;;;4915770;29;20047;-73
2021/09/09 10:29:50;;;;;;;16.65;15.35;;;20.10;73.60;;;;;;4932913;29;20130;-73
2021/09/09 10:32:31;;;;;;;17.00;15.60;;;20.30;74.40;;;;;;4931710;29;20113;-72
2021/09/09 10:35:15;;;;;;;16.45;15.05;;;20.40;72.80;;;;;;4932293;29;20696;-73
2021/09/09 10:37:53;;;;;;;17.05;15.70;;;20.60;70.40;;;;;;4933722;29;20098;-73
2021/09/09 10:40:28;;;;;;;18.60;16.73;;;21.00;71.30;;;;;;4946995;29;20150;-73
2021/09/09 10:43:10;;;;;;;17.38;16.08;;;21.40;71.80;;;;;;4932043;29;20061;-73
2021/09/09 10:45:46;;;;;;;18.75;17.15;;;21.70;71.80;;;;;;4932950;29;20051;-74
2021/09/09 10:48:22;;;;;;;18.80;17.20;;;21.90;70.20;;;;;;4931453;29;20063;-73
2021/09/09 10:51:11;;;;;;;18.13;16.73;;;22.10;69.20;;;;;;4933261;29;20075;-74
2021/09/09 10:53:51;;;;;;;18.25;16.85;;;22.30;67.90;;;;;;4933979;29;20517;-73
2021/09/09 10:56:27;;;;;;;;;;;22.40;65.50;;;;;;4934047;29;20052;-73
2021/09/09 10:59:19;;;;;;;17.80;16.48;;;22.20;66.40;;;;;;4934216;29;20014;-73
2021/09/09 11:01:51;;;;;;;19.08;17.48;;;22.00;66.70;;;;;;4924998;30;20820;-73
2021/09/09 11:04:32;;;;;;;18.33;16.92;;;21.90;66.80;;;;;;4938386;29;20051;-73
2021/09/09 11:07:31;;;;;;;18.48;17.08;;;22.10;65.80;;;;;;4931926;29;20113;-74
2021/09/09 11:10:08;;;;;;;18.10;16.77;;;22.40;65.90;;;;;;4933347;29;20109;-74
2021/09/09 11:12:54;;;;;;;18.55;17.15;;;22.70;66.50;;;;;;4920385;29;20051;-74
2021/09/09 11:15:33;;;;;;;18.83;17.30;;;22.90;64.90;;;;;;4936198;29;20247;-73
2021/09/09 11:18:05;;;;;;;17.67;16.35;;;23.10;63.80;;;;;;4934029;29;20072;-73
2021/09/09 11:20:37;;;;;;;18.38;16.83;;;23.20;61.40;;;;;;4936121;29;20170;-73
2021/09/09 11:23:10;;;;;;;17.83;16.45;;;23.30;65.80;;;;;;4937251;29;20137;-73
2021/09/09 11:25:43;;;;;;;17.95;16.65;;;23.60;63.60;;;;;;4936557;29;20058;-72
2021/09/09 11:28:17;;;;;;;17.02;15.73;;;23.80;64.50;;;;;;4938743;29;20549;-73
2021/09/09 11:31:11;;;;;;;17.42;16.10;;;23.70;62.20;;;;;;4936352;29;20047;-73
2021/09/09 11:33:53;;;;;;;17.60;16.08;;;23.70;62.60;;;;;;4943916;29;20075;-73
2021/09/09 11:36:33;;;;;;;17.00;15.80;;;23.60;61.70;;;;;;4934719;29;20054;-73
2021/09/09 11:39:16;;;;;;;;;;;23.60;63.70;;;;;;4936191;29;20066;-73
2021/09/09 11:41:51;;;;;;;16.88;15.60;;;23.60;63.80;;;;;;4932294;29;19936;-73
2021/09/09 11:44:32;;;;;;;16.52;15.38;;;23.60;58.80;;;;;;4935616;29;20116;-73
2021/09/09 11:47:18;;;;;;;16.27;15.07;;;23.60;59.50;;;;;;4934785;29;20128;-73
2021/09/09 11:49:59;;;;;;;15.85;14.75;;;23.60;59.90;;;;;;4943643;29;20847;-73
2021/09/09 11:52:31;;;;;;;16.70;15.50;;;23.60;58.60;;;;;;4941756;29;20094;-73
2021/09/09 11:55:11;;;;;;;17.00;15.70;;;23.60;59.50;;;;;;4937039;29;20148;-73
2021/09/09 11:57:44;;;;;;;16.80;15.45;;;23.50;57.20;;;;;;4937143;29;20094;-72
2021/09/09 12:00:16;;;;;;;16.35;14.98;;;23.50;60.40;;;;;;4934456;29;20079;-73
2021/09/09 12:02:48;;;;;;;15.48;14.35;;;23.50;57.60;;;;;;4937666;29;20787;-73
2021/09/09 12:05:23;;;;;;;16.63;15.38;;;23.40;61.00;;;;;;4936000;29;20177;-73
2021/09/09 12:07:55;;;;;;;15.93;14.82;;;23.50;60.20;;;;;;4936115;29;20053;-73
2021/09/09 12:10:26;;;;;;;16.67;15.43;;;23.50;61.70;;;;;;4935959;29;20126;-73
2021/09/09 12:12:59;;;;;;;15.63;14.48;;;23.60;59.30;;;;;;4935295;29;20159;-73
2021/09/09 12:15:31;;;;;;;16.85;15.55;;;23.50;60.20;;;;;;4935115;29;20051;-73
2021/09/09 12:18:10;;;;;;;16.45;15.25;;;23.50;59.80;;;;;;4935707;29;20358;-73
2021/09/09 12:20:42;;;;;;;16.17;14.88;;;23.50;58.20;;;;;;4922154;29;20048;-72
2021/09/09 12:23:19;;;;;;;16.20;15.00;;;23.50;59.10;;;;;;4917898;29;20528;-73
2021/09/09 12:25:51;;;;;;;15.48;14.27;;;23.60;60.00;;;;;;4934576;29;20170;-72
2021/09/09 12:28:30;;;;;;;15.85;14.65;;;23.70;59.40;;;;;;4933705;29;20654;-73
2021/09/09 12:31:02;;;;;;;15.13;13.93;;;23.60;58.60;;;;;;4936537;29;20051;-73
2021/09/09 12:33:39;;;;;;;15.68;14.57;;;23.70;55.00;;;;;;4937219;29;20051;-73
2021/09/09 12:36:16;;;;;;;15.93;14.55;;;23.60;58.70;;;;;;4936381;29;20518;-73
2021/09/09 12:38:51;;;;;;;16.27;14.80;;;23.60;59.40;;;;;;4948201;29;20079;-73
2021/09/09 12:41:23;;;;;;;15.63;14.43;;;23.70;58.40;;;;;;4937251;29;20147;-73
2021/09/09 12:43:58;;;;;;;15.88;14.63;;;23.70;57.40;;;;;;4933614;29;20067;-73
2021/09/09 12:46:36;;;;;;;15.80;14.57;;;23.70;59.00;;;;;;4936406;29;20066;-73
2021/09/09 12:49:12;;;;;;;16.45;15.13;;;23.60;59.60;;;;;;4938143;29;20056;-73
2021/09/09 12:51:47;;;;;;;16.30;15.10;;;23.60;60.10;;;;;;4935149;29;20051;-73
2021/09/09 12:54:19;;;;;;;16.65;15.35;;;23.60;60.40;;;;;;4941966;29;20056;-74
2021/09/09 12:56:54;;;;;;;16.25;15.05;;;23.60;59.60;;;;;;4933533;29;20079;-73
2021/09/09 12:59:27;;;;;;;16.27;15.07;;;23.60;62.80;;;;;;4935036;29;20138;-73